Time;durP1;ratioP1;P1;durP2;ratioP2;P2;SDS_P1;SDS_P2;PMS_P1;PMS_P2;Temp;Humidity;BMP_temperature;BMP_pressure;BME280_temperature;BME280_humidity;BME280_pressure;Samples;Min_cycle;Max_cycle;Signal;HPM_P1;HPM_P2
2022/10/17 00:01:43;;;;;;;4.05;1.30;;;;;;;13.24;100.00;101117.25;5199468;28;20034;-72
2022/10/17 00:04:14;;;;;;;2.53;1.42;;;;;;;13.07;100.00;101115.25;5192450;28;20038;-72
2022/10/17 00:06:44;;;;;;;3.80;1.48;;;;;;;13.06;100.00;101120.56;5202720;28;20032;-72
2022/10/17 00:09:14;;;;;;;6.07;1.70;;;;;;;13.07;100.00;101110.00;5203073;28;20087;-72
2022/10/17 00:11:45;;;;;;;4.40;1.63;;;;;;;13.05;100.00;101113.59;5202355;28;20030;-72
2022/10/17 00:14:15;;;;;;;2.90;1.73;;;;;;;13.03;100.00;101107.56;5203139;28;20025;-72
2022/10/17 00:16:45;;;;;;;3.88;1.75;;;;;;;13.11;100.00;101116.00;5202313;28;20018;-72
2022/10/17 00:19:16;;;;;;;5.47;2.83;;;;;;;13.03;100.00;101112.81;5201303;28;20040;-72
2022/10/17 00:21:48;;;;;;;3.92;1.77;;;;;;;13.06;100.00;101113.53;5202259;28;20037;-72
2022/10/17 00:24:18;;;;;;;4.22;1.67;;;;;;;13.08;100.00;101111.69;5190220;28;20061;-71
2022/10/17 00:26:49;;;;;;;3.78;2.22;;;;;;;13.02;100.00;101106.69;5169519;28;20118;-72
2022/10/17 00:29:19;;;;;;;2.72;1.80;;;;;;;13.12;100.00;101104.56;5190901;28;20364;-72
2022/10/17 00:31:53;;;;;;;3.67;1.90;;;;;;;13.08;100.00;101105.63;5194223;28;20025;-72
2022/10/17 00:34:24;;;;;;;5.00;1.90;;;;;;;13.06;100.00;101102.19;5191995;28;20554;-71
2022/10/17 00:36:54;;;;;;;5.65;1.80;;;;;;;13.06;100.00;101103.03;5201257;28;20104;-72
2022/10/17 00:39:25;;;;;;;3.10;1.95;;;;;;;13.08;100.00;101105.63;5201878;28;20036;-72
2022/10/17 00:41:55;;;;;;;2.90;2.03;;;;;;;13.07;100.00;101096.88;5202271;28;20254;-72
2022/10/17 00:44:28;;;;;;;5.38;2.42;;;;;;;13.07;100.00;101098.66;5202119;28;20108;-72
2022/10/17 00:47:05;;;;;;;3.88;2.50;;;;;;;13.16;100.00;101090.41;5201369;28;20112;-72
2022/10/17 00:49:37;;;;;;;4.50;2.80;;;;;;;13.17;100.00;101086.88;5202307;28;20505;-72
2022/10/17 00:52:12;;;;;;;5.55;2.78;;;;;;;13.23;100.00;101084.88;5184461;28;20518;-72
2022/10/17 00:54:50;;;;;;;6.55;3.33;;;;;;;13.26;100.00;101083.91;5194421;28;20460;-72
2022/10/17 00:57:21;;;;;;;6.07;3.33;;;;;;;13.32;100.00;101087.16;5197408;28;20116;-72
2022/10/17 00:59:55;;;;;;;7.25;3.10;;;;;;;13.34;100.00;101071.34;5201574;28;20129;-71
2022/10/17 01:02:26;;;;;;;6.60;3.20;;;;;;;13.36;100.00;101067.75;5241505;22;20085;-78
2022/10/17 01:04:58;;;;;;;5.82;3.20;;;;;;;13.38;100.00;101063.28;5204338;28;20792;-78
2022/10/17 01:07:29;;;;;;;4.60;2.92;;;;;;;13.48;100.00;101062.03;5223501;28;20108;-78
2022/10/17 01:09:59;;;;;;;4.90;3.00;;;;;;;13.46;100.00;101057.75;5223690;28;20585;-78
2022/10/17 01:12:55;;;;;;;4.65;3.35;;;;;;;13.52;100.00;101058.34;5239792;28;20039;-79
2022/10/17 01:15:40;;;;;;;4.90;3.10;;;;;;;13.71;100.00;101061.09;5223294;28;20402;-78
2022/10/17 01:18:21;;;;;;;6.95;3.33;;;;;;;13.65;100.00;101066.59;5226073;28;20822;-78
2022/10/17 01:21:02;;;;;;;5.55;3.10;;;;;;;13.69;100.00;101053.28;5244925;28;20036;-79
2022/10/17 01:23:53;;;;;;;4.32;3.40;;;;;;;13.70;100.00;101060.25;5244660;28;20036;-76
2022/10/17 01:27:01;;;;;;;7.22;3.42;;;;;;;13.82;100.00;101053.63;5244463;28;20025;-78
2022/10/17 01:29:43;;;;;;;4.65;3.25;;;;;;;13.80;100.00;101056.34;5243229;28;20126;-79
2022/10/17 01:32:24;;;;;;;7.00;3.60;;;;;;;13.85;100.00;101053.50;5244399;28;20510;-79
2022/10/17 01:35:21;;;;;;;5.90;4.07;;;;;;;13.80;100.00;101058.09;5241626;28;20578;-79
2022/10/17 01:38:02;;;;;;;6.35;3.70;;;;;;;13.89;100.00;101052.47;5238248;28;20051;-79
2022/10/17 01:40:47;;;;;;;4.75;3.67;;;;;;;13.97;100.00;101053.00;5244356;28;20035;-78
2022/10/17 01:44:07;;;;;;;6.70;3.22;;;;;;;14.12;100.00;101042.69;5240925;28;20037;-78
2022/10/17 01:46:41;;;;;;;6.30;3.50;;;;;;;14.13;100.00;101052.31;5241335;28;20055;-78
2022/10/17 01:49:15;;;;;;;4.20;3.10;;;;;;;14.10;100.00;101046.31;5242368;28;20033;-78
2022/10/17 01:51:53;;;;;;;5.38;3.80;;;;;;;14.25;100.00;101038.66;5224853;28;20048;-78
2022/10/17 01:54:31;;;;;;;5.05;3.50;;;;;;;14.31;100.00;101038.41;5240479;28;20028;-78
2022/10/17 01:57:06;;;;;;;5.60;4.20;;;;;;;14.29;100.00;101028.84;5242466;28;20509;-78
2022/10/17 01:59:41;;;;;;;5.63;3.65;;;;;;;14.33;100.00;101027.81;5223623;28;20119;-78
2022/10/17 02:02:13;;;;;;;5.65;3.63;;;;;;;14.45;100.00;101024.66;5242386;28;20067;-77
2022/10/17 02:04:46;;;;;;;4.82;3.60;;;;;;;14.49;100.00;101020.94;5242553;28;20660;-78
2022/10/17 02:07:16;;;;;;;4.85;3.65;;;;;;;14.52;100.00;101026.06;5241795;28;20107;-79
2022/10/17 02:09:46;;;;;;;5.05;3.80;;;;;;;14.48;100.00;101024.50;5242343;28;20032;-79
2022/10/17 02:12:19;;;;;;;6.68;3.78;;;;;;;14.50;100.00;101022.66;5242971;28;20497;-78
2022/10/17 02:15:08;;;;;;;6.78;4.30;;;;;;;14.49;100.00;101023.56;5239161;28;20027;-78
2022/10/17 02:18:06;;;;;;;4.45;3.30;;;;;;;14.52;100.00;101023.44;5242279;28;20107;-78
2022/10/17 02:20:49;;;;;;;6.20;3.90;;;;;;;14.52;100.00;101026.06;5241128;28;20028;-77
2022/10/17 02:23:52;;;;;;;5.90;3.33;;;;;;;14.51;100.00;101017.34;5220815;28;20020;-78
2022/10/17 02:26:32;;;;;;;4.65;3.42;;;;;;;14.54;100.00;101021.59;5215815;28;20691;-78
2022/10/17 02:29:15;;;;;;;5.32;3.30;;;;;;;14.59;100.00;101023.09;5223612;28;20032;-79
2022/10/17 02:32:01;;;;;;;6.57;3.30;;;;;;;14.57;100.00;101021.47;5242254;28;20089;-79
2022/10/17 02:34:42;;;;;;;5.30;3.00;;;;;;;14.61;100.00;101015.16;5240786;28;20036;-78
2022/10/17 02:37:18;;;;;;;3.78;3.13;;;;;;;14.60;100.00;101019.53;5222832;28;20520;-78
2022/10/17 02:39:49;;;;;;;;;;;;;;;14.56;100.00;101012.72;5238758;28;20024;-78
2022/10/17 02:42:22;;;;;;;4.82;3.53;;;;;;;14.50;100.00;101012.13;5241792;28;19912;-78
2022/10/17 02:44:56;;;;;;;6.63;3.15;;;;;;;14.53;100.00;101012.00;5224094;28;20113;-78
2022/10/17 02:47:33;;;;;;;5.95;3.53;;;;;;;14.49;100.00;101013.91;5241013;28;20033;-78
2022/10/17 02:50:05;;;;;;;5.20;3.20;;;;;;;14.57;100.00;101003.91;5222575;28;20039;-78
2022/10/17 02:52:46;;;;;;;7.32;5.65;;;;;;;14.45;100.00;101014.13;5241611;28;20017;-78
2022/10/17 02:55:27;;;;;;;6.57;3.90;;;;;;;14.53;100.00;101012.00;5223685;28;20025;-78
2022/10/17 02:58:01;;;;;;;6.50;4.25;;;;;;;14.40;100.00;101010.84;5238030;28;20021;-78
2022/10/17 03:00:32;;;;;;;4.93;3.38;;;;;;;14.35;100.00;101007.53;5241227;28;20501;-78
2022/10/17 03:03:18;;;;;;;4.03;2.70;;;;;;;14.40;100.00;101006.44;5221825;28;20053;-78
2022/10/17 03:05:48;;;;;;;5.80;3.20;;;;;;;14.30;100.00;100999.88;5238029;28;20441;-78
2022/10/17 03:08:19;;;;;;;4.95;2.80;;;;;;;14.30;100.00;101009.53;5241100;28;20041;-79
2022/10/17 03:10:50;;;;;;;5.07;3.53;;;;;;;14.28;100.00;101012.22;5241637;28;20044;-78
2022/10/17 03:13:20;;;;;;;5.75;3.15;;;;;;;14.29;100.00;100999.94;5215367;28;20033;-79
2022/10/17 03:15:50;;;;;;;6.22;3.30;;;;;;;14.22;100.00;101011.66;5241816;28;20423;-78
2022/10/17 03:18:21;;;;;;;4.50;2.97;;;;;;;14.28;100.00;101006.13;5239192;28;20536;-79
2022/10/17 03:20:51;;;;;;;6.38;3.63;;;;;;;14.40;100.00;101005.59;5243205;28;20021;-78
2022/10/17 03:23:21;;;;;;;6.47;3.28;;;;;;;14.47;100.00;101007.88;5245002;28;20440;-78
2022/10/17 03:25:52;;;;;;;5.40;3.30;;;;;;;14.35;100.00;101012.81;5245146;28;20107;-78
2022/10/17 03:28:22;;;;;;;6.57;3.85;;;;;;;14.31;100.00;101019.13;5244310;28;20032;-78
2022/10/17 03:30:52;;;;;;;8.88;4.22;;;;;;;14.27;100.00;101021.03;5244814;28;20093;-78
2022/10/17 03:33:22;;;;;;;6.30;4.32;;;;;;;14.22;100.00;101017.75;5244437;28;20029;-78
2022/10/17 03:35:53;;;;;;;6.32;3.47;;;;;;;14.15;100.00;101010.16;5245180;28;20496;-78
2022/10/17 03:38:23;;;;;;;9.65;5.60;;;;;;;14.11;100.00;101009.44;5244163;28;20032;-78
2022/10/17 03:40:55;;;;;;;4.78;3.65;;;;;;;14.14;100.00;101008.44;5244796;28;20115;-79
2022/10/17 03:43:25;;;;;;;7.50;4.50;;;;;;;14.10;100.00;101007.72;5244355;28;20036;-78
2022/10/17 03:45:57;;;;;;;7.15;3.63;;;;;;;14.10;100.00;101012.97;5244867;28;20020;-79
2022/10/17 03:48:29;;;;;;;5.85;4.00;;;;;;;14.12;100.00;101011.13;5218298;28;20090;-78
2022/10/17 03:51:01;;;;;;;8.95;4.80;;;;;;;14.06;100.00;101013.19;5242336;28;20032;-79
2022/10/17 03:53:32;;;;;;;7.90;3.97;;;;;;;14.01;100.00;101021.28;5244232;28;20062;-78
2022/10/17 03:56:17;;;;;;;6.13;3.42;;;;;;;14.01;100.00;101028.28;5244231;28;20020;-78
2022/10/17 03:58:48;;;;;;;6.45;3.67;;;;;;;13.99;100.00;101032.75;5239894;28;20052;-79
2022/10/17 04:01:18;;;;;;;5.50;3.33;;;;;;;14.03;100.00;101029.06;5218942;28;20496;-78
2022/10/17 04:03:53;;;;;;;7.35;3.30;;;;;;;14.02;100.00;101024.72;5222572;28;20029;-78
2022/10/17 04:06:24;;;;;;;6.22;3.58;;;;;;;13.92;100.00;101028.69;5243671;28;20039;-78
2022/10/17 04:08:54;;;;;;;4.47;3.33;;;;;;;13.90;100.00;101027.91;5244534;28;20494;-79
2022/10/17 04:11:24;;;;;;;5.00;3.15;;;;;;;13.87;100.00;101026.25;5244220;28;20038;-78
2022/10/17 04:13:56;;;;;;;4.93;3.42;;;;;;;13.82;100.00;101033.47;5226103;28;20046;-79
2022/10/17 04:16:27;;;;;;;9.07;3.72;;;;;;;13.78;100.00;101041.53;5243403;28;20048;-77
2022/10/17 04:18:58;;;;;;;5.05;3.30;;;;;;;13.78;100.00;101038.91;5243826;28;20415;-78
2022/10/17 04:21:29;;;;;;;5.53;3.70;;;;;;;13.71;100.00;101035.69;5243059;28;20078;-79
2022/10/17 04:23:59;;;;;;;5.63;3.60;;;;;;;13.68;100.00;101033.19;5243567;28;20109;-78
2022/10/17 04:26:30;;;;;;;6.78;3.42;;;;;;;13.62;100.00;101035.19;5243119;28;20028;-78
2022/10/17 04:29:00;;;;;;;5.43;3.60;;;;;;;13.61;100.00;101036.13;5243849;28;20024;-79
2022/10/17 04:31:30;;;;;;;6.43;3.72;;;;;;;13.55;100.00;101034.59;5241990;28;20021;-79
2022/10/17 04:34:00;;;;;;;4.38;3.08;;;;;;;13.46;100.00;101032.34;5243293;28;20517;-79
2022/10/17 04:36:31;;;;;;;4.63;3.30;;;;;;;13.46;100.00;101039.34;5208401;28;20125;-79
2022/10/17 04:39:03;;;;;;;6.10;3.50;;;;;;;13.45;100.00;101042.91;5243683;28;20032;-78
2022/10/17 04:41:34;;;;;;;6.95;3.50;;;;;;;13.43;100.00;101042.09;5243316;28;20039;-78
2022/10/17 04:44:04;;;;;;;5.25;3.63;;;;;;;13.42;100.00;101040.41;5243830;28;20099;-78
2022/10/17 04:46:35;;;;;;;5.38;3.40;;;;;;;13.42;100.00;101040.41;5242563;28;20040;-78
2022/10/17 04:49:05;;;;;;;5.82;3.63;;;;;;;13.44;100.00;101043.81;5243791;28;20029;-79
2022/10/17 04:51:37;;;;;;;7.15;4.07;;;;;;;13.42;100.00;101045.66;5243199;28;20029;-79
2022/10/17 04:54:07;;;;;;;5.18;3.30;;;;;;;13.40;100.00;101044.88;5241781;28;20036;-79
2022/10/17 04:56:37;;;;;;;6.43;3.72;;;;;;;13.38;100.00;101046.69;5242608;28;20020;-78
2022/10/17 04:59:08;;;;;;;5.40;3.67;;;;;;;13.40;100.00;101047.50;5224721;28;20040;-79
2022/10/17 05:01:38;;;;;;;5.07;3.80;;;;;;;13.37;100.00;101047.63;5208309;28;20541;-79
2022/10/17 05:04:08;;;;;;;7.03;3.78;;;;;;;13.38;100.00;101042.28;5243106;28;20038;-79
2022/10/17 05:06:39;;;;;;;5.60;3.78;;;;;;;13.35;100.00;101044.16;5242738;28;20398;-79
2022/10/17 05:09:09;;;;;;;4.88;3.58;;;;;;;13.28;100.00;101040.94;5243204;28;20029;-79
2022/10/17 05:11:41;;;;;;;6.15;3.63;;;;;;;13.21;100.00;101044.72;5242575;28;20129;-78
2022/10/17 05:14:11;;;;;;;4.97;3.60;;;;;;;13.21;100.00;101049.13;5243054;28;20032;-79
2022/10/17 05:16:41;;;;;;;5.25;3.72;;;;;;;13.20;100.00;101047.41;5224393;28;20047;-78
2022/10/17 05:19:12;;;;;;;5.40;3.67;;;;;;;13.21;100.00;101049.13;5241986;28;20505;-79
2022/10/17 05:21:42;;;;;;;5.40;3.58;;;;;;;13.18;100.00;101050.09;5225173;28;20131;-79
2022/10/17 05:24:13;;;;;;;6.72;3.97;;;;;;;13.16;100.00;101043.19;5242694;28;20032;-78
2022/10/17 05:26:44;;;;;;;5.43;3.90;;;;;;;13.16;100.00;101051.03;5241716;28;20079;-79
2022/10/17 05:29:14;;;;;;;6.05;3.92;;;;;;;13.09;100.00;101052.22;5242592;28;20036;-79
2022/10/17 05:31:45;;;;;;;7.22;4.15;;;;;;;13.07;100.00;101056.66;5242336;28;20035;-79
2022/10/17 05:34:15;;;;;;;5.65;3.80;;;;;;;13.05;100.00;101061.13;5242524;28;20507;-78
2022/10/17 05:36:45;;;;;;;10.07;4.47;;;;;;;13.01;100.00;101055.13;5224073;28;20017;-79
2022/10/17 05:39:18;;;;;;;7.72;4.20;;;;;;;13.06;100.00;101049.72;5242139;28;20086;-78
2022/10/17 05:41:50;;;;;;;5.47;4.22;;;;;;;13.05;100.00;101058.50;5238748;28;20085;-79
2022/10/17 05:44:20;;;;;;;6.72;4.03;;;;;;;13.11;100.00;101058.25;5241771;28;20081;-79
2022/10/17 05:46:50;;;;;;;6.07;3.90;;;;;;;13.03;100.00;101055.06;5241796;28;20024;-79
2022/10/17 05:49:21;;;;;;;6.28;4.30;;;;;;;13.02;100.00;101064.69;5242214;28;20116;-79
2022/10/17 05:51:51;;;;;;;5.55;4.00;;;;;;;13.03;100.00;101060.31;5241936;28;20528;-79
2022/10/17 05:54:21;;;;;;;6.50;4.28;;;;;;;13.02;100.00;101061.22;5241763;28;20203;-78
2022/10/17 05:56:53;;;;;;;7.75;3.90;;;;;;;13.03;100.00;101063.78;5241487;28;20020;-79
2022/10/17 05:59:25;;;;;;;5.95;3.95;;;;;;;13.06;100.00;101060.19;5241797;28;20035;-78
2022/10/17 06:01:55;;;;;;;7.15;3.67;;;;;;;13.12;100.00;101070.47;5242041;28;20035;-79
2022/10/17 06:04:26;;;;;;;6.28;3.80;;;;;;;13.20;100.00;101063.16;5242197;28;20633;-79
2022/10/17 06:06:56;;;;;;;11.88;4.10;;;;;;;13.24;100.00;101070.00;5223717;28;20017;-79
2022/10/17 06:09:27;;;;;;;5.32;3.75;;;;;;;13.29;100.00;101068.03;5241712;28;20815;-79
2022/10/17 06:11:57;;;;;;;5.40;3.50;;;;;;;13.35;100.00;101070.41;5242169;28;20024;-79
2022/10/17 06:14:28;;;;;;;5.60;3.60;;;;;;;13.39;100.00;101066.78;5221488;28;20037;-78
2022/10/17 06:16:58;;;;;;;5.85;3.75;;;;;;;13.44;100.00;101070.06;5241672;28;20109;-79
2022/10/17 06:19:28;;;;;;;9.07;3.58;;;;;;;13.49;100.00;101073.38;5220761;28;20417;-79
2022/10/17 06:21:59;;;;;;;5.72;3.17;;;;;;;13.54;100.00;101079.31;5241991;28;20032;-79
2022/10/17 06:24:29;;;;;;;6.40;3.50;;;;;;;13.58;100.00;101076.47;5241203;28;20745;-79
2022/10/17 06:26:59;;;;;;;5.32;3.30;;;;;;;13.66;100.00;101079.69;5241385;28;20020;-79
2022/10/17 06:29:29;;;;;;;7.32;3.60;;;;;;;13.65;100.00;101082.34;5241726;28;20040;-78
2022/10/17 06:32:00;;;;;;;7.35;3.70;;;;;;;13.67;100.00;101075.25;5241772;28;20024;-78
2022/10/17 06:34:30;;;;;;;6.78;3.15;;;;;;;13.77;100.00;101081.88;5241717;28;20524;-79
2022/10/17 06:37:00;;;;;;;5.20;3.47;;;;;;;13.75;100.00;101084.53;5241425;28;20050;-79
2022/10/17 06:39:32;;;;;;;4.43;2.95;;;;;;;13.78;100.00;101089.66;5241553;28;20553;-79
2022/10/17 06:42:03;;;;;;;6.22;3.35;;;;;;;13.76;100.00;101094.13;5223583;28;20035;-79
2022/10/17 06:44:33;;;;;;;6.93;3.30;;;;;;;13.79;100.00;101091.41;5241787;28;20024;-79
2022/10/17 06:47:03;;;;;;;5.70;2.95;;;;;;;13.83;100.00;101092.13;5241333;28;20391;-79
2022/10/17 06:49:34;;;;;;;6.70;3.22;;;;;;;13.80;100.00;101100.13;5240983;28;20586;-79
2022/10/17 06:52:04;;;;;;;10.20;3.83;;;;;;;13.81;100.00;101099.22;5241514;28;20036;-79
2022/10/17 06:54:35;;;;;;;4.22;2.95;;;;;;;13.79;100.00;101101.06;5215607;28;20025;-79
2022/10/17 06:57:05;;;;;;;5.25;2.90;;;;;;;13.79;100.00;101093.16;5239487;28;20017;-79
2022/10/17 06:59:35;;;;;;;5.05;3.25;;;;;;;13.87;100.00;101094.56;5244565;28;20104;-79
2022/10/17 07:02:05;;;;;;;5.38;2.85;;;;;;;13.95;100.00;101102.13;5244405;28;20108;-79
2022/10/17 07:04:36;;;;;;;4.53;2.63;;;;;;;14.02;100.00;101109.72;5244379;28;20029;-79
2022/10/17 07:07:07;;;;;;;7.65;3.30;;;;;;;14.10;100.00;101112.03;5244598;28;21231;-79
2022/10/17 07:09:37;;;;;;;9.20;3.38;;;;;;;14.07;100.00;101106.91;5243928;28;20692;-79
2022/10/17 07:12:07;;;;;;;4.47;2.97;;;;;;;14.14;100.00;101109.22;5221592;28;20024;-79
2022/10/17 07:14:37;;;;;;;4.13;2.88;;;;;;;14.34;100.00;101111.91;5243304;28;20120;-79
2022/10/17 07:17:09;;;;;;;7.22;3.55;;;;;;;14.40;100.00;101111.63;5244894;28;20046;-79
2022/10/17 07:19:39;;;;;;;7.53;2.90;;;;;;;14.82;100.00;101115.88;5245149;28;20473;-79
2022/10/17 07:22:11;;;;;;;4.63;2.80;;;;;;;15.23;100.00;101117.53;5245227;28;20039;-79
2022/10/17 07:24:41;;;;;;;10.95;3.40;;;;;;;15.74;100.00;101108.97;5244794;28;20028;-79
2022/10/17 07:27:12;;;;;;;6.95;2.70;;;;;;;16.61;100.00;101104.56;5226076;28;20044;-79
2022/10/17 07:29:42;;;;;;;5.03;2.50;;;;;;;17.49;100.00;101105.06;5244893;28;20035;-79
2022/10/17 07:32:13;;;;;;;3.85;2.13;;;;;;;17.68;100.00;101108.38;5244548;28;20028;-79
2022/10/17 07:34:43;;;;;;;4.93;2.15;;;;;;;17.71;100.00;101113.50;5245229;28;20056;-79
2022/10/17 07:37:13;;;;;;;4.50;2.17;;;;;;;17.39;100.00;101111.78;5226461;28;20046;-79
2022/10/17 07:39:43;;;;;;;5.20;2.00;;;;;;;17.19;100.00;101115.50;5244612;28;20028;-79
2022/10/17 07:42:14;;;;;;;3.30;2.00;;;;;;;16.99;100.00;101112.19;5227056;28;20490;-79
2022/10/17 07:44:46;;;;;;;2.88;1.85;;;;;;;16.81;100.00;101124.56;5245281;28;20103;-79
2022/10/17 07:47:16;;;;;;;2.97;1.70;;;;;;;16.64;100.00;101121.09;5244619;28;20028;-79
2022/10/17 07:49:46;;;;;;;4.05;2.10;;;;;;;16.53;100.00;101134.00;5244353;28;20020;-79
2022/10/17 07:52:17;;;;;;;4.00;2.10;;;;;;;16.35;100.00;101140.19;5244564;28;20033;-79
2022/10/17 07:54:47;;;;;;;3.35;2.13;;;;;;;16.37;100.00;101138.34;5244568;28;20632;-79
2022/10/17 07:57:17;;;;;;;4.85;2.13;;;;;;;16.77;100.00;101132.75;5244003;28;20111;-79
2022/10/17 07:59:49;;;;;;;3.70;1.90;;;;;;;17.18;100.00;101134.03;5222368;28;20684;-78
2022/10/17 08:02:25;;;;;;;4.65;1.90;;;;;;;17.84;100.00;101125.94;5243043;28;20332;-79
2022/10/17 08:04:55;;;;;;;3.80;1.88;;;;;;;18.98;100.00;101114.69;5217280;28;20028;-79
2022/10/17 08:07:26;;;;;;;3.70;1.80;;;;;;;19.49;100.00;101115.91;5239843;28;20024;-79
2022/10/17 08:09:56;;;;;;;5.83;1.90;;;;;;;20.01;100.00;101115.09;5243056;28;20024;-79
2022/10/17 08:12:30;;;;;;;4.15;1.67;;;;;;;19.96;100.00;101119.84;5243572;28;20683;-79
2022/10/17 08:15:01;;;;;;;4.03;2.08;;;;;;;20.18;100.00;101122.84;5242444;28;20503;-79
2022/10/17 08:17:33;;;;;;;4.37;1.80;;;;;;;20.08;100.00;101121.72;5243044;28;20170;-79
2022/10/17 08:20:05;;;;;;;5.38;2.05;;;;;;;20.10;100.00;101114.50;5242837;28;20385;-79
2022/10/17 08:22:35;;;;;;;3.97;1.65;;;;;;;20.35;100.00;101114.59;5242904;28;20388;-79
2022/10/17 08:25:06;;;;;;;5.97;1.65;;;;;;;20.46;100.00;101112.03;5242914;28;20037;-79
2022/10/17 08:27:37;;;;;;;4.20;2.10;;;;;;;19.96;100.00;101117.19;5242718;28;20033;-78
2022/10/17 08:30:08;;;;;;;8.07;2.20;;;;;;;20.05;100.00;101121.94;5216280;28;20041;-79
2022/10/17 08:32:38;;;;;;;3.67;1.90;;;;;;;19.90;100.00;101122.03;5242083;28;20687;-79
2022/10/17 08:35:09;;;;;;;5.03;1.65;;;;;;;20.10;100.00;101119.81;5242651;28;20040;-79
2022/10/17 08:37:40;;;;;;;3.45;1.80;;;;;;;19.92;100.00;101118.34;5242622;28;20166;-78
2022/10/17 08:40:23;;;;;;;5.75;1.83;;;;;;;19.76;100.00;101120.28;5242124;28;20662;-79
2022/10/17 08:43:24;;;;;;;5.60;2.00;;;;;;;19.41;100.00;101123.50;5242999;28;20612;-79
2022/10/17 08:45:59;;;;;;;2.95;1.70;;;;;;;19.71;100.00;101125.03;5236659;28;20040;-79
2022/10/17 08:48:38;;;;;;;3.67;1.67;;;;;;;19.93;100.00;101122.69;5221874;28;20094;-79
2022/10/17 08:51:14;;;;;;;3.67;1.60;;;;;;;19.80;100.00;101119.13;5242661;28;20418;-78
2022/10/17 08:54:01;;;;;;;4.38;1.70;;;;;;;19.66;100.00;101119.19;5224632;28;20081;-78
2022/10/17 08:56:43;;;;;;;5.63;1.88;;;;;;;19.81;100.00;101107.56;5241110;28;20036;-79
2022/10/17 08:59:17;;;;;;;4.47;2.05;;;;;;;19.87;100.00;101112.50;5224306;28;20115;-79
2022/10/17 09:02:01;;;;;;;3.22;1.90;;;;;;;19.95;100.00;101109.34;5242251;28;20027;-78
2022/10/17 09:04:51;;;;;;;4.22;1.90;;;;;;;20.07;100.00;101114.72;5242041;28;20047;-79
2022/10/17 09:07:31;;;;;;;5.00;1.70;;;;;;;20.23;100.00;101107.44;5242212;28;20029;-79
2022/10/17 09:10:27;;;;;;;5.20;1.77;;;;;;;20.54;100.00;101099.13;5223800;28;20036;-79
2022/10/17 09:13:00;;;;;;;2.78;1.65;;;;;;;20.54;100.00;101099.13;5239851;28;20566;-79
2022/10/17 09:16:10;;;;;;;4.28;1.80;;;;;;;20.50;100.00;101097.59;5241369;28;20055;-78
2022/10/17 09:18:46;;;;;;;4.55;1.90;;;;;;;20.66;100.00;101100.91;5240944;28;20050;-78
2022/10/17 09:21:24;;;;;;;2.45;1.55;;;;;;;20.73;100.00;101095.06;5220164;28;20723;-79
2022/10/17 09:23:59;;;;;;;4.10;1.90;;;;;;;20.73;100.00;101096.91;5239490;28;20444;-78
2022/10/17 09:26:30;;;;;;;4.03;1.60;;;;;;;20.74;100.00;101095.94;5241310;28;20437;-78
2022/10/17 09:29:01;;;;;;;6.75;1.80;;;;;;;20.58;100.00;101097.06;5241874;28;20024;-78
2022/10/17 09:31:39;;;;;;;2.65;1.60;;;;;;;20.51;100.00;101107.25;5241041;28;20082;-79
2022/10/17 09:34:10;;;;;;;4.18;1.70;;;;;;;20.78;100.00;101108.06;5240784;28;20036;-78
2022/10/17 09:36:42;;;;;;;4.75;1.50;;;;;;;20.66;100.00;101100.91;5222743;28;20697;-78
2022/10/17 09:39:18;;;;;;;2.92;1.73;;;;;;;20.71;100.00;101101.47;5215920;28;20561;-79
2022/10/17 09:41:52;;;;;;;3.22;1.77;;;;;;;20.57;100.00;101100.69;5237519;28;20071;-79
2022/10/17 09:44:24;;;;;;;4.00;1.70;;;;;;;20.65;100.00;101096.56;5241366;28;20028;-78
2022/10/17 09:46:58;;;;;;;4.47;1.90;;;;;;;20.75;100.00;101094.97;5240869;28;20091;-78
2022/10/17 09:49:33;;;;;;;1.98;1.45;;;;;;;20.79;100.00;101093.81;5242166;28;20035;-78
2022/10/17 09:52:08;;;;;;;6.72;1.98;;;;;;;21.01;100.00;101102.00;5241393;28;20032;-79
2022/10/17 09:54:41;;;;;;;7.65;1.58;;;;;;;20.94;100.00;101095.44;5241437;28;20025;-79
2022/10/17 09:57:13;;;;;;;6.25;2.00;;;;;;;20.82;100.00;101101.56;5240674;28;20702;-79
2022/10/17 09:59:54;;;;;;;4.50;1.90;;;;;;;20.72;100.00;101108.47;5241001;28;20493;-78
2022/10/17 10:02:26;;;;;;;4.50;1.50;;;;;;;20.72;100.00;101111.13;5238793;28;20056;-79
2022/10/17 10:05:04;;;;;;;3.22;1.60;;;;;;;20.90;100.00;101107.25;5223693;28;20055;-78
2022/10/17 10:07:37;;;;;;;9.20;1.80;;;;;;;20.81;100.00;101123.78;5222507;28;20453;-78
2022/10/17 10:10:23;;;;;;;3.92;1.58;;;;;;;20.84;100.00;101121.81;5241683;28;20714;-79
2022/10/17 10:13:14;;;;;;;5.50;1.70;;;;;;;20.82;100.00;101121.03;5241070;28;20043;-78
2022/10/17 10:15:49;;;;;;;8.05;2.10;;;;;;;21.21;100.00;101112.13;5240653;28;20116;-78
2022/10/17 10:18:35;;;;;;;4.70;1.45;;;;;;;21.11;100.00;101121.69;5237220;28;20050;-78
2022/10/17 10:21:13;;;;;;;;;;;;;;;20.97;100.00;101122.66;5241891;28;20478;-79
2022/10/17 10:24:01;;;;;;;3.75;1.80;;;;;;;20.99;100.00;101136.69;5241144;28;19919;-78
2022/10/17 10:26:42;;;;;;;3.13;1.30;;;;;;;20.94;100.00;101133.50;5240810;28;20038;-78
2022/10/17 10:29:35;;;;;;;6.57;1.75;;;;;;;21.00;100.00;101141.06;5241821;28;20520;-78
2022/10/17 10:32:20;;;;;;;3.45;1.60;;;;;;;21.01;100.00;101136.56;5224926;28;20074;-78
2022/10/17 10:34:57;;;;;;;4.57;1.63;;;;;;;20.96;100.00;101139.56;5245264;28;20063;-78
2022/10/17 10:37:42;;;;;;;3.65;1.63;;;;;;;20.81;100.00;101139.72;5224402;28;20267;-79
2022/10/17 10:40:32;;;;;;;5.15;2.00;;;;;;;20.91;100.00;101136.34;5245524;28;20033;-78
2022/10/17 10:43:05;;;;;;;3.63;1.80;;;;;;;20.76;100.00;101139.19;5243205;28;20048;-79
2022/10/17 10:45:35;;;;;;;2.95;1.48;;;;;;;20.90;100.00;101139.13;5245426;28;20029;-78
2022/10/17 10:48:20;;;;;;;3.27;1.90;;;;;;;20.88;100.00;101143.72;5244580;28;20055;-78
2022/10/17 10:50:54;;;;;;;4.43;1.70;;;;;;;21.02;100.00;101128.50;5244032;28;20025;-78
2022/10/17 10:53:28;;;;;;;5.93;1.65;;;;;;;21.27;100.00;101132.94;5226581;28;20032;-78
2022/10/17 10:56:02;;;;;;;6.65;2.15;;;;;;;21.43;100.00;101137.06;5245766;28;20028;-78
2022/10/17 10:58:39;;;;;;;8.40;1.95;;;;;;;21.61;99.25;101143.72;5246092;28;20094;-78
2022/10/17 11:01:21;;;;;;;7.47;1.60;;;;;;;21.87;95.86;101140.06;5245249;28;20024;-77
2022/10/17 11:04:22;;;;;;;4.18;1.80;;;;;;;21.80;95.17;101129.97;5245056;28;20047;-77
2022/10/17 11:07:10;;;;;;;3.58;1.42;;;;;;;21.89;92.87;101127.50;5240888;28;20028;-78
2022/10/17 11:10:04;;;;;;;4.03;1.70;;;;;;;21.86;94.52;101126.84;5243819;28;20129;-78
2022/10/17 11:12:44;;;;;;;3.60;1.60;;;;;;;21.77;93.91;101124.88;5243358;28;20103;-79
2022/10/17 11:15:24;;;;;;;5.80;1.67;;;;;;;21.81;92.98;101123.69;5243707;28;20677;-79
2022/10/17 11:18:01;;;;;;;8.90;1.80;;;;;;;21.61;93.09;101126.94;5244703;28;20393;-78
2022/10/17 11:20:35;;;;;;;5.00;1.60;;;;;;;21.51;92.60;101126.75;5244695;28;20056;-77
2022/10/17 11:23:23;;;;;;;4.72;1.80;;;;;;;21.53;95.26;101131.94;5225782;28;20027;-79
2022/10/17 11:25:57;;;;;;;6.55;1.60;;;;;;;21.54;95.04;101136.31;5245365;28;20107;-78
2022/10/17 11:28:28;;;;;;;6.53;2.00;;;;;;;21.59;94.51;101131.50;5245341;28;20039;-78
2022/10/17 11:31:08;;;;;;;4.78;1.55;;;;;;;21.59;93.80;101136.84;5244201;28;20566;-78
2022/10/17 11:33:49;;;;;;;3.38;1.60;;;;;;;21.68;91.23;101136.19;5245271;28;20063;-77
2022/10/17 11:36:24;;;;;;;7.68;2.00;;;;;;;21.72;94.98;101140.34;5246026;28;20088;-78
2022/10/17 11:39:17;;;;;;;3.60;1.67;;;;;;;21.69;94.97;101148.53;5244718;28;20020;-78
2022/10/17 11:41:57;;;;;;;5.63;1.50;;;;;;;21.75;96.93;101138.28;5244651;28;20028;-78
2022/10/17 11:44:33;;;;;;;6.70;1.55;;;;;;;21.93;93.18;101146.75;5244711;28;20098;-79
2022/10/17 11:47:26;;;;;;;8.68;1.77;;;;;;;21.86;92.50;101143.69;5244338;28;20020;-78
2022/10/17 11:50:32;;;;;;;6.72;1.55;;;;;;;22.11;93.28;101154.22;5229359;28;20070;-79
2022/10/17 11:53:12;;;;;;;6.57;1.40;;;;;;;22.00;90.98;101140.88;5244904;28;20024;-78
2022/10/17 11:55:43;;;;;;;4.80;1.40;;;;;;;21.93;91.38;101144.94;5243839;28;20549;-78